Time;durP1;ratioP1;P1;durP2;ratioP2;P2;SDS_P1;SDS_P2;PMS_P1;PMS_P2;Temp;Humidity;BMP_temperature;BMP_pressure;BME280_temperature;BME280_humidity;BME280_pressure;Samples;Min_cycle;Max_cycle;Signal;HPM_P1;HPM_P2
2023/09/11 00:02:05;;;;;;;22.42;18.98;;;20.40;99.90;;;;;;5011199;28;20136;-73
2023/09/11 00:04:32;;;;;;;23.55;19.42;;;20.40;99.90;;;;;;4993307;28;20037;-73
2023/09/11 00:07:01;;;;;;;22.00;18.50;;;20.30;99.90;;;;;;4978110;28;20126;-73
2023/09/11 00:09:28;;;;;;;21.77;18.85;;;20.30;99.90;;;;;;5010160;28;20069;-73
2023/09/11 00:11:56;;;;;;;20.40;18.08;;;20.30;99.90;;;;;;4995087;28;20099;-73
2023/09/11 00:14:23;;;;;;;20.33;18.23;;;20.30;99.90;;;;;;5008895;28;20128;-73
2023/09/11 00:16:52;;;;;;;20.98;18.83;;;20.30;99.90;;;;;;5011641;28;20124;-73
2023/09/11 00:19:19;;;;;;;21.20;18.98;;;20.30;99.90;;;;;;4996658;28;20045;-73
2023/09/11 00:21:46;;;;;;;23.92;19.50;;;20.20;99.90;;;;;;5014100;28;20123;-73
2023/09/11 00:24:14;;;;;;;22.83;19.27;;;20.20;99.90;;;;;;4995311;28;20132;-73
2023/09/11 00:26:41;;;;;;;22.30;19.88;;;20.20;99.90;;;;;;4992759;28;20045;-73
2023/09/11 00:29:09;;;;;;;26.27;21.60;;;20.20;99.90;;;;;;4993090;28;20046;-73
2023/09/11 00:31:36;;;;;;;28.35;23.63;;;20.30;99.90;;;;;;5009238;28;20510;-73
2023/09/11 00:34:04;;;;;;;24.95;20.38;;;20.30;99.90;;;;;;4993196;28;20121;-73
2023/09/11 00:36:31;;;;;;;23.13;20.65;;;20.30;99.90;;;;;;5012947;28;20064;-73
2023/09/11 00:39:01;;;;;;;22.35;19.95;;;20.30;99.90;;;;;;4994477;28;20085;-73
2023/09/11 00:41:28;;;;;;;23.83;21.33;;;20.30;99.90;;;;;;4994153;28;20192;-73
2023/09/11 00:43:56;;;;;;;21.25;18.98;;;20.30;99.90;;;;;;4980155;28;20049;-73
2023/09/11 00:46:23;;;;;;;25.92;19.27;;;20.30;99.90;;;;;;5013665;28;20046;-73
2023/09/11 00:48:53;;;;;;;21.50;19.15;;;20.30;99.90;;;;;;5015690;28;20045;-72
2023/09/11 00:51:20;;;;;;;21.67;19.42;;;20.40;99.90;;;;;;4982498;28;20049;-73
2023/09/11 00:53:49;;;;;;;23.85;20.25;;;20.30;99.90;;;;;;4996402;28;20584;-73
2023/09/11 00:56:16;;;;;;;24.27;19.85;;;20.30;99.90;;;;;;5016654;28;20551;-73
2023/09/11 00:58:45;;;;;;;22.77;19.27;;;20.20;99.90;;;;;;5014879;28;20034;-73
2023/09/11 01:01:13;;;;;;;23.83;18.85;;;20.10;99.90;;;;;;4998689;28;20053;-73
2023/09/11 01:03:40;;;;;;;20.50;18.40;;;20.10;99.90;;;;;;4988338;28;20034;-73
2023/09/11 01:06:10;;;;;;;22.38;19.98;;;20.10;99.90;;;;;;4997935;28;20063;-73
2023/09/11 01:08:38;;;;;;;23.98;20.83;;;20.10;99.90;;;;;;5001607;28;20061;-73
2023/09/11 01:11:06;;;;;;;25.17;20.02;;;20.10;99.90;;;;;;5013800;28;20092;-73
2023/09/11 01:13:34;;;;;;;22.17;19.65;;;20.10;99.90;;;;;;5013179;28;20240;-73
2023/09/11 01:16:10;;;;;;;28.67;19.58;;;20.10;99.90;;;;;;5018161;28;20041;-72
2023/09/11 01:18:51;;;;;;;22.42;20.02;;;20.10;99.90;;;;;;5009371;28;20454;-73
2023/09/11 01:21:40;;;;;;;23.42;19.52;;;20.10;99.90;;;;;;5010565;28;20072;-73
2023/09/11 01:24:42;;;;;;;23.02;20.33;;;20.10;99.90;;;;;;4980064;28;20566;-73
2023/09/11 01:27:31;;;;;;;21.88;19.25;;;20.00;99.90;;;;;;4952501;28;20054;-73
2023/09/11 01:29:59;;;;;;;23.27;20.83;;;20.00;99.90;;;;;;4947806;28;20062;-74
2023/09/11 01:32:27;;;;;;;22.35;19.95;;;20.00;99.90;;;;;;4968279;28;20121;-73
2023/09/11 01:34:55;;;;;;;24.92;20.67;;;19.90;99.90;;;;;;4966254;28;20430;-72
2023/09/11 01:37:22;;;;;;;25.75;20.33;;;19.90;99.90;;;;;;4949826;28;20181;-73
2023/09/11 01:39:50;;;;;;;23.27;19.90;;;19.90;99.90;;;;;;4966926;28;20130;-73
2023/09/11 01:42:25;;;;;;;22.75;20.30;;;19.90;99.90;;;;;;4965891;28;20081;-73
2023/09/11 01:44:55;;;;;;;23.02;19.98;;;19.80;99.90;;;;;;4951842;28;20511;-72
2023/09/11 01:47:23;;;;;;;21.75;19.55;;;19.80;99.90;;;;;;4965131;28;20045;-73
2023/09/11 01:49:53;;;;;;;22.95;20.08;;;19.70;99.90;;;;;;4967891;28;20214;-73
2023/09/11 01:52:21;;;;;;;22.50;19.73;;;19.70;99.90;;;;;;4970046;28;20582;-73
2023/09/11 01:54:49;;;;;;;22.48;19.42;;;19.60;99.90;;;;;;4952349;28;20078;-73
2023/09/11 01:57:17;;;;;;;22.92;19.50;;;19.60;99.90;;;;;;4967385;28;20254;-73
2023/09/11 01:59:44;;;;;;;22.23;19.77;;;19.60;99.90;;;;;;4950899;28;20053;-73
2023/09/11 02:02:12;;;;;;;23.42;19.55;;;19.50;99.90;;;;;;4948524;28;20046;-72
2023/09/11 02:04:39;;;;;;;24.65;20.42;;;19.40;99.90;;;;;;4979122;28;20498;-73
2023/09/11 02:07:07;;;;;;;20.98;18.23;;;19.40;99.90;;;;;;4974175;28;20410;-73
2023/09/11 02:09:34;;;;;;;25.35;19.88;;;19.40;99.90;;;;;;5007745;28;20534;-73
2023/09/11 02:12:02;;;;;;;22.20;18.35;;;19.40;99.90;;;;;;4990978;28;20058;-72
2023/09/11 02:14:29;;;;;;;21.42;19.17;;;19.40;99.90;;;;;;4990789;28;20124;-72
2023/09/11 02:17:02;;;;;;;23.40;19.38;;;19.40;99.90;;;;;;4986312;28;20080;-73
2023/09/11 02:19:31;;;;;;;23.50;18.98;;;19.30;99.90;;;;;;4992746;28;20092;-72
2023/09/11 02:22:00;;;;;;;22.27;19.80;;;19.30;99.90;;;;;;4991425;28;20061;-72
2023/09/11 02:24:28;;;;;;;20.90;18.70;;;19.30;99.90;;;;;;5009448;28;20081;-73
2023/09/11 02:26:56;;;;;;;20.27;18.15;;;19.30;99.90;;;;;;5007661;28;20497;-73
2023/09/11 02:29:24;;;;;;;22.45;18.30;;;19.40;99.90;;;;;;4990868;28;20038;-73
2023/09/11 02:31:51;;;;;;;20.63;18.23;;;19.30;99.90;;;;;;5008002;28;20458;-73
2023/09/11 02:34:19;;;;;;;23.98;18.17;;;19.40;99.90;;;;;;4987816;28;20037;-73
2023/09/11 02:36:46;;;;;;;19.80;17.58;;;19.40;99.90;;;;;;4991343;28;20042;-73
2023/09/11 02:39:14;;;;;;;23.38;18.42;;;19.40;99.90;;;;;;4989322;28;20065;-73
2023/09/11 02:41:41;;;;;;;21.55;18.17;;;19.50;99.90;;;;;;4992374;28;20054;-73
2023/09/11 02:44:09;;;;;;;20.98;17.95;;;19.50;99.90;;;;;;4990429;28;20434;-73
2023/09/11 02:46:36;;;;;;;20.02;17.10;;;19.50;99.90;;;;;;5007786;28;20081;-72
2023/09/11 02:49:04;;;;;;;22.08;17.92;;;19.50;99.90;;;;;;5007729;28;20431;-73
2023/09/11 02:51:31;;;;;;;20.25;17.55;;;19.50;99.90;;;;;;5006680;28;20038;-71
2023/09/11 02:53:59;;;;;;;21.67;18.30;;;19.50;99.90;;;;;;5007335;28;20038;-73
2023/09/11 02:56:27;;;;;;;23.27;18.65;;;19.40;99.90;;;;;;5007687;28;20057;-73
2023/09/11 02:58:55;;;;;;;21.17;18.02;;;19.40;99.90;;;;;;4974011;28;20053;-73
2023/09/11 03:01:23;;;;;;;20.90;18.70;;;19.40;99.90;;;;;;4994676;28;20033;-72
2023/09/11 03:03:50;;;;;;;24.92;18.00;;;19.40;99.90;;;;;;4989430;28;20119;-73
2023/09/11 03:06:17;;;;;;;21.05;18.48;;;19.40;99.90;;;;;;4989288;28;20176;-73
2023/09/11 03:08:45;;;;;;;18.70;16.73;;;19.50;99.90;;;;;;4975109;28;20072;-73
2023/09/11 03:11:13;;;;;;;20.75;18.65;;;19.50;99.90;;;;;;4993706;28;20053;-73
2023/09/11 03:13:41;;;;;;;19.77;17.23;;;19.50;99.90;;;;;;4991640;28;20580;-73
2023/09/11 03:16:13;;;;;;;20.95;18.75;;;19.50;99.90;;;;;;5012649;28;20116;-73
2023/09/11 03:18:45;;;;;;;21.55;17.90;;;19.50;99.90;;;;;;5000618;28;20494;-72
2023/09/11 03:21:14;;;;;;;22.42;18.75;;;19.50;99.90;;;;;;4977772;28;20049;-73
2023/09/11 03:23:41;;;;;;;22.63;18.50;;;19.40;99.90;;;;;;4995484;28;20117;-73
2023/09/11 03:26:14;;;;;;;18.90;16.90;;;19.40;99.90;;;;;;4996519;28;20034;-72
2023/09/11 03:28:48;;;;;;;19.15;17.15;;;19.40;99.90;;;;;;4994306;28;20065;-73
2023/09/11 03:31:17;;;;;;;20.27;17.58;;;19.40;99.90;;;;;;4976688;28;20073;-73
2023/09/11 03:33:45;;;;;;;18.77;16.80;;;19.30;99.90;;;;;;5010795;28;20422;-73
2023/09/11 03:36:15;;;;;;;20.15;17.98;;;19.30;99.90;;;;;;5013440;28;20561;-72
2023/09/11 03:38:43;;;;;;;19.38;17.38;;;19.30;99.90;;;;;;4993378;28;20060;-71
2023/09/11 03:41:11;;;;;;;19.73;17.08;;;19.30;99.90;;;;;;4994227;28;20426;-73
2023/09/11 03:43:39;;;;;;;21.67;17.13;;;19.20;99.90;;;;;;4976655;28;20184;-73
2023/09/11 03:46:07;;;;;;;19.65;17.10;;;19.20;99.90;;;;;;4993374;28;20118;-72
2023/09/11 03:48:37;;;;;;;22.55;19.42;;;19.10;99.90;;;;;;4990151;28;20038;-72
2023/09/11 03:51:05;;;;;;;22.27;18.80;;;19.10;99.90;;;;;;4993177;28;20044;-72
2023/09/11 03:53:34;;;;;;;22.65;17.92;;;19.10;99.90;;;;;;5007819;28;20119;-72
2023/09/11 03:56:02;;;;;;;21.42;18.65;;;19.10;99.90;;;;;;4992238;28;20053;-72
2023/09/11 03:58:30;;;;;;;19.45;17.35;;;19.10;99.90;;;;;;4976864;28;20056;-72
2023/09/11 04:00:58;;;;;;;20.42;17.83;;;19.10;99.90;;;;;;4990300;28;20124;-72
2023/09/11 04:03:25;;;;;;;20.85;18.60;;;19.10;99.90;;;;;;5011008;28;20042;-73
2023/09/11 04:05:53;;;;;;;20.30;17.67;;;19.10;99.90;;;;;;4979977;28;20056;-72
2023/09/11 04:08:21;;;;;;;28.23;18.20;;;19.10;99.90;;;;;;5006250;28;20096;-72
2023/09/11 04:10:49;;;;;;;21.13;18.85;;;19.10;99.90;;;;;;4989949;28;20057;-73
2023/09/11 04:13:16;;;;;;;19.73;17.10;;;19.00;99.90;;;;;;5007943;28;20092;-73
2023/09/11 04:15:44;;;;;;;18.75;16.75;;;19.10;99.90;;;;;;5009291;28;20439;-72
2023/09/11 04:18:12;;;;;;;19.77;16.67;;;19.00;99.90;;;;;;4994486;28;20125;-73
2023/09/11 04:20:40;;;;;;;18.35;16.38;;;19.10;99.90;;;;;;5007687;28;20056;-72
2023/09/11 04:23:07;;;;;;;21.42;17.67;;;19.00;99.90;;;;;;4976210;28;20263;-73
2023/09/11 04:25:34;;;;;;;21.42;17.83;;;19.00;99.90;;;;;;4973846;28;20423;-73
2023/09/11 04:28:02;;;;;;;19.92;17.83;;;19.00;99.90;;;;;;4977108;28;20151;-72
2023/09/11 04:30:30;;;;;;;20.65;18.55;;;19.00;99.90;;;;;;5013271;28;20601;-73
2023/09/11 04:32:58;;;;;;;21.17;17.92;;;19.00;99.90;;;;;;4975418;28;20061;-72
2023/09/11 04:35:25;;;;;;;18.20;15.85;;;19.00;99.90;;;;;;4983794;28;20123;-73
2023/09/11 04:37:53;;;;;;;20.88;18.38;;;19.00;99.90;;;;;;4994418;28;20061;-73
2023/09/11 04:40:21;;;;;;;23.50;20.52;;;19.00;99.90;;;;;;5005630;28;20064;-73
2023/09/11 04:42:48;;;;;;;21.75;18.55;;;19.00;99.90;;;;;;4992664;28;20100;-72
2023/09/11 04:45:15;;;;;;;21.35;19.02;;;19.00;99.90;;;;;;5009114;28;20046;-73
2023/09/11 04:47:43;;;;;;;21.75;19.58;;;19.00;99.90;;;;;;4976731;28;20054;-73
2023/09/11 04:50:11;;;;;;;25.15;20.65;;;19.00;99.90;;;;;;4980977;28;20124;-73
2023/09/11 04:52:39;;;;;;;22.58;19.00;;;19.00;99.90;;;;;;5007062;28;20076;-73
2023/09/11 04:55:07;;;;;;;24.83;20.90;;;19.00;99.90;;;;;;4978471;28;20045;-73
2023/09/11 04:57:36;;;;;;;25.80;20.25;;;19.10;99.90;;;;;;4962676;28;20394;-71
2023/09/11 05:00:10;;;;;;;23.33;18.67;;;19.10;99.90;;;;;;4992368;28;20623;-73
2023/09/11 05:02:40;;;;;;;20.15;18.05;;;19.10;99.90;;;;;;4991545;28;20524;-72
2023/09/11 05:05:09;;;;;;;27.85;20.27;;;19.10;99.90;;;;;;5002206;28;20576;-74
2023/09/11 05:07:36;;;;;;;22.88;19.58;;;19.10;99.90;;;;;;4983706;28;20065;-72
2023/09/11 05:10:05;;;;;;;21.17;17.80;;;19.10;99.90;;;;;;4975658;28;20037;-72
2023/09/11 05:12:33;;;;;;;22.17;18.27;;;19.10;99.90;;;;;;4990794;28;20502;-71
2023/09/11 05:15:02;;;;;;;19.85;17.27;;;19.10;99.90;;;;;;4993263;28;20038;-72
2023/09/11 05:17:30;;;;;;;21.67;18.50;;;19.10;99.90;;;;;;4993502;28;20050;-72
2023/09/11 05:19:58;;;;;;;19.35;17.15;;;19.10;99.90;;;;;;4997744;28;20056;-71
2023/09/11 05:22:26;;;;;;;21.80;17.55;;;19.10;99.90;;;;;;4992398;28;20510;-71
2023/09/11 05:24:53;;;;;;;20.58;17.25;;;19.20;99.90;;;;;;4981515;28;20147;-71
2023/09/11 05:27:21;;;;;;;21.92;17.33;;;19.20;99.90;;;;;;5012987;28;20042;-72
2023/09/11 05:29:49;;;;;;;22.23;18.52;;;19.30;99.90;;;;;;4993263;28;20537;-71
2023/09/11 05:32:18;;;;;;;20.92;18.38;;;19.30;99.90;;;;;;5013562;28;20042;-71
2023/09/11 05:34:45;;;;;;;19.27;16.73;;;19.30;99.90;;;;;;5009407;28;20056;-72
2023/09/11 05:37:13;;;;;;;21.40;17.95;;;19.40;99.90;;;;;;5011065;28;20132;-73
2023/09/11 05:39:40;;;;;;;21.50;16.85;;;19.40;99.90;;;;;;4976686;28;20042;-73
2023/09/11 05:42:07;;;;;;;22.45;17.25;;;19.40;99.90;;;;;;5009158;28;20050;-73
2023/09/11 05:44:36;;;;;;;20.08;17.42;;;19.40;99.90;;;;;;4994403;28;20049;-72
2023/09/11 05:47:04;;;;;;;23.70;18.15;;;19.50;99.90;;;;;;5008534;28;20095;-73
2023/09/11 05:49:31;;;;;;;18.73;16.58;;;19.50;99.90;;;;;;5007677;28;20041;-73
2023/09/11 05:51:59;;;;;;;19.52;17.08;;;19.50;99.90;;;;;;5005680;28;20572;-73
2023/09/11 05:54:27;;;;;;;19.20;17.20;;;19.60;99.90;;;;;;5011704;28;20046;-73
2023/09/11 05:56:54;;;;;;;22.25;18.27;;;19.60;99.90;;;;;;5008477;28;20080;-73
2023/09/11 05:59:22;;;;;;;25.20;20.40;;;19.70;99.90;;;;;;5008196;28;20050;-73
2023/09/11 06:01:49;;;;;;;23.35;19.48;;;19.80;99.90;;;;;;4994048;28;20077;-73
2023/09/11 06:04:17;;;;;;;22.02;18.02;;;19.90;99.90;;;;;;5007736;28;20132;-74
2023/09/11 06:06:48;;;;;;;20.48;18.27;;;20.00;99.90;;;;;;4992125;28;20084;-77
2023/09/11 06:09:16;;;;;;;20.80;17.60;;;20.20;99.90;;;;;;4990474;28;20041;-76
2023/09/11 06:11:44;;;;;;;23.92;18.92;;;20.30;99.90;;;;;;5011510;28;20045;-75
2023/09/11 06:14:12;;;;;;;23.60;19.17;;;20.40;99.90;;;;;;4991525;28;20048;-76
2023/09/11 06:16:39;;;;;;;21.65;19.35;;;20.60;99.90;;;;;;4992460;28;20057;-75
2023/09/11 06:19:07;;;;;;;24.52;20.45;;;20.80;99.90;;;;;;4991331;28;20046;-75
2023/09/11 06:21:35;;;;;;;24.63;21.13;;;20.90;99.90;;;;;;4990767;28;20042;-76
2023/09/11 06:24:04;;;;;;;26.13;20.73;;;20.90;99.90;;;;;;4993056;28;20072;-75
2023/09/11 06:26:32;;;;;;;21.63;18.83;;;20.90;99.90;;;;;;5004944;28;20132;-75
2023/09/11 06:28:59;;;;;;;25.05;19.73;;;20.90;99.90;;;;;;5006131;28;20552;-76
2023/09/11 06:31:28;;;;;;;24.38;19.88;;;21.00;99.90;;;;;;4975344;28;20038;-75
2023/09/11 06:33:56;;;;;;;23.00;19.73;;;21.10;99.90;;;;;;4961301;28;20098;-76
2023/09/11 06:36:23;;;;;;;19.27;17.00;;;21.20;99.90;;;;;;4972474;28;20050;-76
2023/09/11 06:38:51;;;;;;;24.40;19.52;;;21.30;99.90;;;;;;4995301;28;20103;-73
2023/09/11 06:41:19;;;;;;;22.23;19.55;;;21.50;99.90;;;;;;4988397;28;20601;-75
2023/09/11 06:43:47;;;;;;;22.30;19.27;;;21.60;99.90;;;;;;4993577;28;20042;-75
2023/09/11 06:46:16;;;;;;;22.55;18.10;;;21.60;99.90;;;;;;5006931;28;20041;-76
2023/09/11 06:48:43;;;;;;;25.77;19.52;;;21.80;99.90;;;;;;4988717;28;20084;-77
2023/09/11 06:51:11;;;;;;;27.63;21.10;;;21.90;99.90;;;;;;5010036;28;20097;-75
2023/09/11 06:53:40;;;;;;;22.58;18.15;;;21.90;99.90;;;;;;5007934;28;20502;-76
2023/09/11 06:56:08;;;;;;;20.45;17.88;;;22.00;99.90;;;;;;5008255;28;20149;-76
2023/09/11 06:58:38;;;;;;;27.00;19.35;;;22.00;99.90;;;;;;4996873;28;20061;-75
2023/09/11 07:01:07;;;;;;;26.33;20.60;;;22.20;99.90;;;;;;5009355;28;20083;-76
2023/09/11 07:03:36;;;;;;;23.17;18.23;;;22.20;99.90;;;;;;5009167;28;20046;-75
2023/09/11 07:06:03;;;;;;;24.45;20.05;;;22.30;99.90;;;;;;5010918;28;20120;-76
2023/09/11 07:08:31;;;;;;;29.50;20.75;;;22.40;99.90;;;;;;5006707;28;20418;-75
2023/09/11 07:10:58;;;;;;;25.40;19.92;;;22.30;99.90;;;;;;5007671;28;20033;-75
2023/09/11 07:13:26;;;;;;;26.52;19.50;;;22.30;99.90;;;;;;5008771;28;20042;-73
2023/09/11 07:15:59;;;;;;;28.90;21.27;;;22.40;99.90;;;;;;4991834;28;20145;-74
2023/09/11 07:18:27;;;;;;;29.85;23.13;;;22.40;99.90;;;;;;5002934;28;20054;-74
2023/09/11 07:20:55;;;;;;;28.42;19.80;;;22.50;99.90;;;;;;5002904;28;20041;-74
2023/09/11 07:23:24;;;;;;;25.92;20.33;;;22.50;99.90;;;;;;5006878;28;20576;-75
2023/09/11 07:25:52;;;;;;;25.25;21.27;;;22.60;99.90;;;;;;5005152;28;20124;-74
2023/09/11 07:28:20;;;;;;;26.35;21.52;;;22.60;99.90;;;;;;4988861;28;20050;-76
2023/09/11 07:30:47;;;;;;;28.95;20.98;;;22.70;99.90;;;;;;5003083;28;20495;-74
2023/09/11 07:33:15;;;;;;;28.70;20.92;;;22.90;99.90;;;;;;4989247;28;20030;-74
2023/09/11 07:35:42;;;;;;;22.52;20.13;;;23.00;99.90;;;;;;5001370;28;20038;-74
2023/09/11 07:38:10;;;;;;;24.45;21.00;;;23.00;99.90;;;;;;4991184;28;20080;-76
2023/09/11 07:40:38;;;;;;;23.10;18.40;;;23.10;99.90;;;;;;5004113;28;20405;-74
2023/09/11 07:43:05;;;;;;;22.92;19.92;;;23.30;99.90;;;;;;4975909;28;20042;-75
2023/09/11 07:45:33;;;;;;;20.90;18.52;;;23.40;99.90;;;;;;5008782;28;20124;-75
2023/09/11 07:48:00;;;;;;;23.35;19.40;;;23.50;99.90;;;;;;5011333;28;20038;-76
2023/09/11 07:50:28;;;;;;;21.45;18.70;;;23.60;99.90;;;;;;5001602;28;20046;-75
2023/09/11 07:52:55;;;;;;;23.17;18.90;;;23.70;99.90;;;;;;5000446;28;20135;-75
2023/09/11 07:55:24;;;;;;;19.83;17.80;;;23.80;99.90;;;;;;5005060;28;20109;-75
2023/09/11 07:57:54;;;;;;;21.98;16.80;;;24.00;99.90;;;;;;5009808;28;20060;-75
2023/09/11 08:00:21;;;;;;;20.60;17.02;;;24.10;99.90;;;;;;5009459;28;20565;-75
2023/09/11 08:02:48;;;;;;;20.80;18.55;;;24.20;99.90;;;;;;4976637;28;20078;-75
2023/09/11 08:05:16;;;;;;;19.63;17.58;;;24.40;99.90;;;;;;5009575;28;20049;-74
2023/09/11 08:07:44;;;;;;;20.23;17.33;;;24.50;99.90;;;;;;4998398;28;20038;-75
2023/09/11 08:10:11;;;;;;;18.83;16.73;;;24.50;99.90;;;;;;4994370;28;20138;-75
2023/09/11 08:12:38;;;;;;;18.65;16.13;;;24.70;99.90;;;;;;4994054;28;20042;-75
2023/09/11 08:15:06;;;;;;;17.17;15.43;;;24.70;99.90;;;;;;5009552;28;20580;-75
2023/09/11 08:17:34;;;;;;;18.60;16.42;;;24.80;99.90;;;;;;4996857;28;20076;-74
2023/09/11 08:20:02;;;;;;;17.52;15.63;;;24.90;99.90;;;;;;5006823;28;20053;-75
2023/09/11 08:22:31;;;;;;;16.48;14.80;;;25.00;99.90;;;;;;5007624;28;20042;-75
2023/09/11 08:24:58;;;;;;;18.98;16.20;;;25.10;99.90;;;;;;5008441;28;20560;-76
2023/09/11 08:27:26;;;;;;;17.17;15.25;;;25.10;99.90;;;;;;4992646;28;20038;-75
2023/09/11 08:29:55;;;;;;;21.58;16.13;;;25.10;99.90;;;;;;5007771;28;20093;-75
2023/09/11 08:32:24;;;;;;;18.42;16.40;;;25.00;99.90;;;;;;5010883;28;20117;-75
2023/09/11 08:34:52;;;;;;;18.45;16.33;;;25.10;99.90;;;;;;4974765;28;20054;-74
2023/09/11 08:37:19;;;;;;;19.67;16.27;;;25.20;99.90;;;;;;4992649;28;20046;-74
2023/09/11 08:39:47;;;;;;;17.50;15.70;;;24.90;99.90;;;;;;4991365;28;20053;-74
2023/09/11 08:42:14;;;;;;;18.83;15.40;;;24.90;99.90;;;;;;5007936;28;20048;-75
2023/09/11 08:44:42;;;;;;;17.27;14.70;;;25.30;99.90;;;;;;4992371;28;20061;-76
2023/09/11 08:47:13;;;;;;;17.50;15.75;;;25.40;99.90;;;;;;5009800;28;20119;-75
2023/09/11 08:49:49;;;;;;;19.27;15.90;;;25.40;99.90;;;;;;4992547;28;20457;-75
2023/09/11 08:52:17;;;;;;;16.95;15.35;;;25.30;99.90;;;;;;4992749;28;20069;-75
2023/09/11 08:54:49;;;;;;;17.95;15.77;;;25.40;99.90;;;;;;4991702;28;20368;-75
2023/09/11 08:57:21;;;;;;;22.20;17.15;;;25.60;99.90;;;;;;4974925;28;20046;-75
2023/09/11 08:59:52;;;;;;;18.55;16.63;;;25.80;99.90;;;;;;4992320;28;20124;-75
2023/09/11 09:02:21;;;;;;;17.90;16.10;;;25.80;99.90;;;;;;4988881;28;20072;-76
2023/09/11 09:04:51;;;;;;;17.65;15.85;;;26.00;99.90;;;;;;4991823;28;20572;-76
2023/09/11 09:07:19;;;;;;;17.85;16.15;;;26.20;99.90;;;;;;5006503;28;20042;-75
2023/09/11 09:09:48;;;;;;;17.60;15.93;;;26.40;99.90;;;;;;5004904;28;20038;-74
2023/09/11 09:12:16;;;;;;;16.63;14.90;;;26.40;99.90;;;;;;4957432;28;20066;-75
2023/09/11 09:14:46;;;;;;;18.02;16.13;;;26.40;99.90;;;;;;5007675;28;20398;-74
2023/09/11 09:17:15;;;;;;;18.10;14.48;;;26.60;99.90;;;;;;4987466;28;20046;-74
2023/09/11 09:19:42;;;;;;;15.98;13.98;;;26.70;99.90;;;;;;4986012;28;20049;-74
2023/09/11 09:22:12;;;;;;;16.02;14.52;;;26.60;99.90;;;;;;5004241;28;20068;-75
2023/09/11 09:24:51;;;;;;;16.75;15.10;;;26.80;99.90;;;;;;5001292;28;20074;-75
2023/09/11 09:27:19;;;;;;;17.42;15.25;;;26.90;99.90;;;;;;4991552;28;20475;-74
2023/09/11 09:29:48;;;;;;;17.55;14.45;;;27.00;99.90;;;;;;5004713;28;20053;-75
2023/09/11 09:32:16;;;;;;;18.02;15.85;;;27.20;99.90;;;;;;5007543;28;20064;-75
2023/09/11 09:34:54;;;;;;;17.90;15.77;;;27.20;99.90;;;;;;4990490;28;20065;-75
2023/09/11 09:37:22;;;;;;;18.20;15.80;;;27.20;99.90;;;;;;4955064;28;20046;-75
2023/09/11 09:39:50;;;;;;;16.52;14.02;;;27.20;99.90;;;;;;5007636;28;20137;-75
2023/09/11 09:42:18;;;;;;;16.05;14.38;;;27.40;99.90;;;;;;4984132;28;20225;-75
2023/09/11 09:44:52;;;;;;;16.58;14.95;;;27.70;99.90;;;;;;5009075;28;20049;-75
2023/09/11 09:47:22;;;;;;;19.10;15.30;;;27.70;99.90;;;;;;5005287;28;20074;-75
2023/09/11 09:49:55;;;;;;;16.33;14.75;;;27.70;99.90;;;;;;5006344;28;20030;-75
2023/09/11 09:52:25;;;;;;;15.27;13.57;;;27.80;99.90;;;;;;5009405;28;20048;-74
2023/09/11 09:54:55;;;;;;;17.90;13.43;;;28.10;99.90;;;;;;4989406;28;20046;-74
2023/09/11 09:57:25;;;;;;;19.65;15.88;;;28.30;99.90;;;;;;4991308;28;20536;-75
2023/09/11 09:59:58;;;;;;;17.45;15.18;;;28.60;99.90;;;;;;5009635;28;20486;-74
2023/09/11 10:02:29;;;;;;;19.20;15.23;;;28.60;99.90;;;;;;5006324;28;20149;-75
2023/09/11 10:05:07;;;;;;;18.10;14.88;;;28.70;99.90;;;;;;4974546;28;20056;-74
2023/09/11 10:07:50;;;;;;;18.20;16.17;;;28.70;99.90;;;;;;5007690;28;20053;-75
2023/09/11 10:10:29;;;;;;;17.05;15.38;;;28.50;99.90;;;;;;4987258;28;20710;-75
2023/09/11 10:13:12;;;;;;;15.80;14.10;;;28.60;99.90;;;;;;4990034;28;20045;-75
2023/09/11 10:15:43;;;;;;;18.88;16.15;;;28.80;99.90;;;;;;4972638;28;20081;-75
2023/09/11 10:18:12;;;;;;;18.17;15.45;;;29.00;99.90;;;;;;4972576;28;20141;-75
2023/09/11 10:20:40;;;;;;;15.48;13.90;;;29.20;99.90;;;;;;5005637;28;20137;-74
2023/09/11 10:23:08;;;;;;;18.63;16.50;;;29.50;99.90;;;;;;4969098;28;20144;-73
2023/09/11 10:25:42;;;;;;;17.15;15.45;;;29.50;99.90;;;;;;4986399;28;20046;-73
2023/09/11 10:28:33;;;;;;;16.80;15.07;;;29.30;99.90;;;;;;4990229;28;20435;-74
2023/09/11 10:31:16;;;;;;;16.03;14.37;;;29.20;99.90;;;;;;4990247;28;20042;-75
2023/09/11 10:33:46;;;;;;;16.45;14.75;;;29.60;99.90;;;;;;4986921;28;20519;-74
2023/09/11 10:36:17;;;;;;;16.83;14.98;;;29.60;99.90;;;;;;4991536;28;20444;-74
2023/09/11 10:38:47;;;;;;;15.82;14.43;;;29.70;99.90;;;;;;5003927;28;20037;-75
2023/09/11 10:41:15;;;;;;;16.00;13.70;;;30.00;99.90;;;;;;4973704;28;20152;-75
2023/09/11 10:43:47;;;;;;;18.88;16.88;;;29.90;99.90;;;;;;5007512;28;20057;-75
2023/09/11 10:46:21;;;;;;;16.23;14.60;;;30.20;99.90;;;;;;4973588;28;20058;-74
2023/09/11 10:48:51;;;;;;;16.52;14.73;;;30.70;99.90;;;;;;5007592;28;20101;-75
2023/09/11 10:51:20;;;;;;;16.30;14.80;;;31.10;99.90;;;;;;4991184;28;20050;-74
2023/09/11 10:53:48;;;;;;;15.02;13.77;;;31.10;99.90;;;;;;5005125;28;20042;-74
2023/09/11 10:56:16;;;;;;;16.63;15.13;;;31.30;99.90;;;;;;4989552;28;20050;-75
2023/09/11 10:58:43;;;;;;;17.42;15.32;;;31.40;99.90;;;;;;4963589;28;20084;-75
2023/09/11 11:01:16;;;;;;;15.27;13.75;;;31.60;99.90;;;;;;4990435;28;20109;-75
2023/09/11 11:03:44;;;;;;;16.08;14.63;;;32.00;99.90;;;;;;4987242;28;20645;-75
2023/09/11 11:06:17;;;;;;;15.68;14.25;;;32.30;99.90;;;;;;4989075;28;20562;-75
2023/09/11 11:08:46;;;;;;;16.15;14.65;;;32.60;99.90;;;;;;5003876;28;20046;-76
2023/09/11 11:11:29;;;;;;;15.65;14.25;;;32.90;99.90;;;;;;4990039;28;20506;-75
2023/09/11 11:14:17;;;;;;;16.30;14.90;;;32.80;99.90;;;;;;4986683;28;20061;-75
2023/09/11 11:16:56;;;;;;;15.57;14.25;;;32.60;99.90;;;;;;4972701;28;20184;-77
2023/09/11 11:19:28;;;;;;;16.33;14.07;;;32.60;99.90;;;;;;4989270;28;20042;-74
2023/09/11 11:21:56;;;;;;;16.65;14.93;;;32.90;99.90;;;;;;4992635;28;20959;-74
2023/09/11 11:24:25;;;;;;;14.88;13.43;;;32.80;99.90;;;;;;4994688;28;20092;-73
2023/09/11 11:26:56;;;;;;;16.00;14.40;;;33.40;99.90;;;;;;5011413;28;20128;-74
2023/09/11 11:29:26;;;;;;;14.25;12.95;;;33.60;99.90;;;;;;5011826;28;20034;-74
2023/09/11 11:31:57;;;;;;;14.15;13.05;;;34.30;99.90;;;;;;4977118;28;20160;-73
2023/09/11 11:34:31;;;;;;;;;;;34.40;99.90;;;;;;5010811;28;20034;-73
2023/09/11 11:37:03;;;;;;;13.65;12.48;;;35.00;99.90;;;;;;4992808;28;19925;-72
2023/09/11 11:39:36;;;;;;;15.55;14.07;;;35.40;99.90;;;;;;4992626;28;20137;-74
2023/09/11 11:42:06;;;;;;;16.13;14.68;;;35.70;99.90;;;;;;4993478;28;20061;-72
2023/09/11 11:44:37;;;;;;;18.38;16.08;;;35.50;99.90;;;;;;4976876;28;20405;-72
2023/09/11 11:47:07;;;;;;;15.95;14.55;;;34.90;99.90;;;;;;5011862;28;20030;-73
2023/09/11 11:49:36;;;;;;;16.15;14.50;;;35.60;99.90;;;;;;5009730;28;20129;-73
2023/09/11 11:52:04;;;;;;;16.48;14.98;;;35.80;99.90;;;;;;5009226;28;20297;-73
2023/09/11 11:54:34;;;;;;;16.08;14.52;;;35.90;99.90;;;;;;4990762;28;20343;-73
2023/09/11 11:57:04;;;;;;;15.85;14.48;;;35.70;99.90;;;;;;5010781;28;20072;-74
2023/09/11 11:59:38;;;;;;;15.30;13.88;;;35.50;99.60;;;;;;4993590;28;20069;-74
2023/09/11 12:02:17;;;;;;;15.07;13.68;;;35.40;99.90;;;;;;4992615;28;20041;-74
2023/09/11 12:04:45;;;;;;;14.73;13.35;;;35.40;99.90;;;;;;5005743;28;20128;-73
2023/09/11 12:07:17;;;;;;;13.35;12.15;;;36.10;98.90;;;;;;4992346;28;20042;-71
2023/09/11 12:09:44;;;;;;;14.27;12.80;;;36.20;98.70;;;;;;5010153;28;20443;-75
2023/09/11 12:12:12;;;;;;;14.70;13.30;;;36.50;96.80;;;;;;4976709;28;20046;-75
2023/09/11 12:14:40;;;;;;;17.08;15.52;;;36.30;97.30;;;;;;4993211;28;20050;-72
2023/09/11 12:17:08;;;;;;;16.65;15.02;;;36.30;97.60;;;;;;4992693;28;20041;-73
2023/09/11 12:19:36;;;;;;;19.40;14.90;;;35.90;97.00;;;;;;4992686;28;20053;-72
2023/09/11 12:22:04;;;;;;;15.77;14.48;;;36.30;97.20;;;;;;4978544;28;20097;-72
2023/09/11 12:24:32;;;;;;;15.18;13.88;;;36.40;96.70;;;;;;5010458;28;20041;-72
2023/09/11 12:27:00;;;;;;;15.38;13.77;;;36.80;96.00;;;;;;4996138;28;20104;-73
2023/09/11 12:29:29;;;;;;;15.90;13.48;;;37.20;95.20;;;;;;5008513;28;20073;-73
2023/09/11 12:31:58;;;;;;;15.45;14.10;;;37.00;94.60;;;;;;5005179;28;20050;-73
2023/09/11 12:34:27;;;;;;;17.30;13.85;;;36.90;94.50;;;;;;5009391;28;20054;-72
2023/09/11 12:36:55;;;;;;;15.15;13.70;;;37.20;94.10;;;;;;5009012;28;20151;-73
2023/09/11 12:39:22;;;;;;;17.67;13.15;;;37.40;93.60;;;;;;5008004;28;20112;-73